sensor_id;sensor_type;location;lat;lon;timestamp;P1;durP1;ratioP1;P2;durP2;ratioP2
11016;SDS011;54687;50.800;6.772;2024-03-02T00:01:24;4.15;;;2.53;;
11016;SDS011;54687;50.800;6.772;2024-03-02T00:03:51;2.67;;;2.47;;
11016;SDS011;54687;50.800;6.772;2024-03-02T00:06:20;5.32;;;2.80;;
11016;SDS011;54687;50.800;6.772;2024-03-02T00:08:47;3.20;;;2.53;;
11016;SDS011;54687;50.800;6.772;2024-03-02T00:11:19;4.20;;;2.58;;
11016;SDS011;54687;50.800;6.772;2024-03-02T00:13:45;3.55;;;2.78;;
11016;SDS011;54687;50.800;6.772;2024-03-02T00:16:12;3.00;;;2.22;;
11016;SDS011;54687;50.800;6.772;2024-03-02T00:18:41;2.85;;;2.55;;
11016;SDS011;54687;50.800;6.772;2024-03-02T00:21:08;2.60;;;2.40;;
11016;SDS011;54687;50.800;6.772;2024-03-02T00:23:37;4.75;;;2.95;;
11016;SDS011;54687;50.800;6.772;2024-03-02T00:26:04;2.75;;;2.33;;
11016;SDS011;54687;50.800;6.772;2024-03-02T00:28:34;2.97;;;2.67;;
11016;SDS011;54687;50.800;6.772;2024-03-02T00:31:04;2.53;;;2.33;;
11016;SDS011;54687;50.800;6.772;2024-03-02T00:33:33;2.67;;;2.38;;
11016;SDS011;54687;50.800;6.772;2024-03-02T00:36:01;3.13;;;2.35;;
11016;SDS011;54687;50.800;6.772;2024-03-02T00:38:30;3.35;;;2.33;;
11016;SDS011;54687;50.800;6.772;2024-03-02T00:41:04;2.30;;;2.10;;
11016;SDS011;54687;50.800;6.772;2024-03-02T00:43:41;2.45;;;2.25;;
11016;SDS011;54687;50.800;6.772;2024-03-02T00:46:11;4.15;;;2.60;;
11016;SDS011;54687;50.800;6.772;2024-03-02T00:48:38;3.55;;;2.40;;
11016;SDS011;54687;50.800;6.772;2024-03-02T00:51:09;3.53;;;2.47;;
11016;SDS011;54687;50.800;6.772;2024-03-02T00:53:36;2.30;;;2.10;;
11016;SDS011;54687;50.800;6.772;2024-03-02T00:56:05;3.13;;;2.42;;
11016;SDS011;54687;50.800;6.772;2024-03-02T00:58:37;4.82;;;2.33;;
11016;SDS011;54687;50.800;6.772;2024-03-02T01:01:04;4.28;;;2.53;;
11016;SDS011;54687;50.800;6.772;2024-03-02T01:03:32;2.47;;;2.28;;
11016;SDS011;54687;50.800;6.772;2024-03-02T01:05:59;2.40;;;2.03;;
11016;SDS011;54687;50.800;6.772;2024-03-02T01:08:25;3.70;;;2.50;;
11016;SDS011;54687;50.800;6.772;2024-03-02T01:10:52;3.03;;;2.60;;
11016;SDS011;54687;50.800;6.772;2024-03-02T01:13:21;3.38;;;2.50;;
11016;SDS011;54687;50.800;6.772;2024-03-02T01:15:49;2.65;;;2.28;;
11016;SDS011;54687;50.800;6.772;2024-03-02T01:18:17;3.78;;;2.28;;
11016;SDS011;54687;50.800;6.772;2024-03-02T01:20:45;4.32;;;2.40;;
11016;SDS011;54687;50.800;6.772;2024-03-02T01:23:15;2.83;;;2.50;;
11016;SDS011;54687;50.800;6.772;2024-03-02T01:25:43;3.15;;;2.20;;
11016;SDS011;54687;50.800;6.772;2024-03-02T01:28:14;2.63;;;2.42;;
11016;SDS011;54687;50.800;6.772;2024-03-02T01:30:44;5.15;;;2.45;;
11016;SDS011;54687;50.800;6.772;2024-03-02T01:33:12;3.80;;;2.45;;
11016;SDS011;54687;50.800;6.772;2024-03-02T01:35:43;3.75;;;2.80;;
11016;SDS011;54687;50.800;6.772;2024-03-02T01:38:12;3.17;;;2.17;;
11016;SDS011;54687;50.800;6.772;2024-03-02T01:40:39;3.17;;;2.45;;
11016;SDS011;54687;50.800;6.772;2024-03-02T01:43:06;2.72;;;2.50;;
11016;SDS011;54687;50.800;6.772;2024-03-02T01:45:33;2.92;;;2.63;;
11016;SDS011;54687;50.800;6.772;2024-03-02T01:48:02;2.90;;;2.60;;
11016;SDS011;54687;50.800;6.772;2024-03-02T01:50:31;2.72;;;2.53;;
11016;SDS011;54687;50.800;6.772;2024-03-02T01:52:58;2.90;;;2.60;;
11016;SDS011;54687;50.800;6.772;2024-03-02T01:55:26;3.45;;;2.50;;
11016;SDS011;54687;50.800;6.772;2024-03-02T01:57:54;2.75;;;2.30;;
11016;SDS011;54687;50.800;6.772;2024-03-02T02:00:21;2.42;;;2.22;;
11016;SDS011;54687;50.800;6.772;2024-03-02T02:02:49;2.65;;;2.35;;
11016;SDS011;54687;50.800;6.772;2024-03-02T02:05:18;3.42;;;2.75;;
11016;SDS011;54687;50.800;6.772;2024-03-02T02:07:44;2.95;;;2.40;;
11016;SDS011;54687;50.800;6.772;2024-03-02T02:10:13;2.67;;;2.40;;
11016;SDS011;54687;50.800;6.772;2024-03-02T02:12:40;4.65;;;2.60;;
11016;SDS011;54687;50.800;6.772;2024-03-02T02:17:49;2.78;;;2.38;;
11016;SDS011;54687;50.800;6.772;2024-03-02T02:20:18;2.88;;;2.55;;
11016;SDS011;54687;50.800;6.772;2024-03-02T02:22:59;4.35;;;2.42;;
11016;SDS011;54687;50.800;6.772;2024-03-02T02:25:27;3.20;;;2.50;;
11016;SDS011;54687;50.800;6.772;2024-03-02T02:27:54;3.00;;;2.10;;
11016;SDS011;54687;50.800;6.772;2024-03-02T02:30:22;4.05;;;2.20;;
11016;SDS011;54687;50.800;6.772;2024-03-02T02:32:50;2.60;;;2.40;;
11016;SDS011;54687;50.800;6.772;2024-03-02T02:35:17;4.93;;;2.30;;
11016;SDS011;54687;50.800;6.772;2024-03-02T02:37:43;3.05;;;2.25;;
11016;SDS011;54687;50.800;6.772;2024-03-02T02:40:13;3.17;;;2.25;;
11016;SDS011;54687;50.800;6.772;2024-03-02T02:42:40;2.25;;;2.05;;
11016;SDS011;54687;50.800;6.772;2024-03-02T02:45:07;2.35;;;2.15;;
11016;SDS011;54687;50.800;6.772;2024-03-02T02:47:34;3.08;;;2.13;;
11016;SDS011;54687;50.800;6.772;2024-03-02T02:50:01;2.63;;;2.05;;
11016;SDS011;54687;50.800;6.772;2024-03-02T02:52:32;2.55;;;2.20;;
11016;SDS011;54687;50.800;6.772;2024-03-02T02:55:01;2.38;;;2.17;;
11016;SDS011;54687;50.800;6.772;2024-03-02T02:57:30;3.17;;;2.10;;
11016;SDS011;54687;50.800;6.772;2024-03-02T03:00:01;4.20;;;2.00;;
11016;SDS011;54687;50.800;6.772;2024-03-02T03:02:30;2.80;;;2.38;;
11016;SDS011;54687;50.800;6.772;2024-03-02T03:04:57;2.53;;;2.20;;
11016;SDS011;54687;50.800;6.772;2024-03-02T03:07:25;5.72;;;2.22;;
11016;SDS011;54687;50.800;6.772;2024-03-02T03:09:52;2.85;;;2.30;;
11016;SDS011;54687;50.800;6.772;2024-03-02T03:12:18;2.13;;;2.03;;
11016;SDS011;54687;50.800;6.772;2024-03-02T03:14:46;2.75;;;2.40;;
11016;SDS011;54687;50.800;6.772;2024-03-02T03:17:13;2.20;;;2.00;;
11016;SDS011;54687;50.800;6.772;2024-03-02T03:19:40;2.60;;;2.10;;
11016;SDS011;54687;50.800;6.772;2024-03-02T03:22:06;3.08;;;2.10;;
11016;SDS011;54687;50.800;6.772;2024-03-02T03:24:33;3.22;;;2.53;;
11016;SDS011;54687;50.800;6.772;2024-03-02T03:26:59;3.03;;;2.30;;
11016;SDS011;54687;50.800;6.772;2024-03-02T03:29:26;3.58;;;2.13;;
11016;SDS011;54687;50.800;6.772;2024-03-02T03:31:54;2.50;;;2.30;;
11016;SDS011;54687;50.800;6.772;2024-03-02T03:34:22;2.10;;;1.90;;
11016;SDS011;54687;50.800;6.772;2024-03-02T03:36:48;2.50;;;1.58;;
11016;SDS011;54687;50.800;6.772;2024-03-02T03:39:15;2.95;;;1.80;;
11016;SDS011;54687;50.800;6.772;2024-03-02T03:41:42;2.05;;;1.85;;
11016;SDS011;54687;50.800;6.772;2024-03-02T03:44:09;2.85;;;2.10;;
11016;SDS011;54687;50.800;6.772;2024-03-02T03:46:36;2.83;;;1.77;;
11016;SDS011;54687;50.800;6.772;2024-03-02T03:49:04;2.53;;;1.92;;
11016;SDS011;54687;50.800;6.772;2024-03-02T03:51:31;2.75;;;2.17;;
11016;SDS011;54687;50.800;6.772;2024-03-02T03:53:57;4.05;;;2.10;;
11016;SDS011;54687;50.800;6.772;2024-03-02T03:56:24;3.03;;;2.35;;
11016;SDS011;54687;50.800;6.772;2024-03-02T03:58:51;3.53;;;2.45;;
11016;SDS011;54687;50.800;6.772;2024-03-02T04:01:18;2.60;;;2.20;;
11016;SDS011;54687;50.800;6.772;2024-03-02T04:03:47;5.10;;;2.60;;
11016;SDS011;54687;50.800;6.772;2024-03-02T04:06:16;4.25;;;2.53;;
11016;SDS011;54687;50.800;6.772;2024-03-02T04:08:42;3.05;;;2.08;;
11016;SDS011;54687;50.800;6.772;2024-03-02T04:11:09;3.70;;;2.22;;
11016;SDS011;54687;50.800;6.772;2024-03-02T04:13:36;3.80;;;2.45;;
11016;SDS011;54687;50.800;6.772;2024-03-02T04:16:02;2.67;;;2.30;;
11016;SDS011;54687;50.800;6.772;2024-03-02T04:18:30;3.97;;;2.15;;
11016;SDS011;54687;50.800;6.772;2024-03-02T04:20:57;3.80;;;2.50;;
11016;SDS011;54687;50.800;6.772;2024-03-02T04:23:25;3.28;;;2.40;;
11016;SDS011;54687;50.800;6.772;2024-03-02T04:25:52;4.55;;;2.60;;
11016;SDS011;54687;50.800;6.772;2024-03-02T04:28:19;3.45;;;2.30;;
11016;SDS011;54687;50.800;6.772;2024-03-02T04:30:46;3.17;;;2.25;;
11016;SDS011;54687;50.800;6.772;2024-03-02T04:33:13;3.30;;;2.63;;
11016;SDS011;54687;50.800;6.772;2024-03-02T04:35:39;2.83;;;2.50;;
11016;SDS011;54687;50.800;6.772;2024-03-02T04:38:07;2.92;;;2.38;;
11016;SDS011;54687;50.800;6.772;2024-03-02T04:40:35;3.38;;;2.22;;
11016;SDS011;54687;50.800;6.772;2024-03-02T04:43:02;5.00;;;2.67;;
11016;SDS011;54687;50.800;6.772;2024-03-02T04:45:29;2.78;;;2.42;;
11016;SDS011;54687;50.800;6.772;2024-03-02T04:47:55;3.78;;;2.38;;
11016;SDS011;54687;50.800;6.772;2024-03-02T04:50:22;3.17;;;2.35;;
11016;SDS011;54687;50.800;6.772;2024-03-02T04:52:49;2.90;;;2.25;;
11016;SDS011;54687;50.800;6.772;2024-03-02T04:55:16;2.67;;;2.38;;
11016;SDS011;54687;50.800;6.772;2024-03-02T04:58:17;3.58;;;2.40;;
11016;SDS011;54687;50.800;6.772;2024-03-02T05:00:43;3.60;;;2.58;;
11016;SDS011;54687;50.800;6.772;2024-03-02T05:03:11;4.43;;;2.78;;
11016;SDS011;54687;50.800;6.772;2024-03-02T05:05:38;4.95;;;2.50;;
11016;SDS011;54687;50.800;6.772;2024-03-02T05:08:05;3.85;;;2.35;;
11016;SDS011;54687;50.800;6.772;2024-03-02T05:10:32;2.45;;;2.20;;
11016;SDS011;54687;50.800;6.772;2024-03-02T05:12:59;3.08;;;2.20;;
11016;SDS011;54687;50.800;6.772;2024-03-02T05:15:27;3.97;;;2.33;;
11016;SDS011;54687;50.800;6.772;2024-03-02T05:17:54;2.65;;;2.22;;
11016;SDS011;54687;50.800;6.772;2024-03-02T05:20:22;3.75;;;2.20;;
11016;SDS011;54687;50.800;6.772;2024-03-02T05:22:48;3.78;;;2.30;;
11016;SDS011;54687;50.800;6.772;2024-03-02T05:25:15;2.88;;;2.40;;
11016;SDS011;54687;50.800;6.772;2024-03-02T05:27:42;2.17;;;1.98;;
11016;SDS011;54687;50.800;6.772;2024-03-02T05:30:09;2.85;;;2.20;;
11016;SDS011;54687;50.800;6.772;2024-03-02T05:32:38;3.00;;;2.47;;
11016;SDS011;54687;50.800;6.772;2024-03-02T05:35:05;3.50;;;2.45;;
11016;SDS011;54687;50.800;6.772;2024-03-02T05:37:33;2.72;;;2.28;;
11016;SDS011;54687;50.800;6.772;2024-03-02T05:39:59;3.63;;;2.40;;
11016;SDS011;54687;50.800;6.772;2024-03-02T05:42:28;3.08;;;2.30;;
11016;SDS011;54687;50.800;6.772;2024-03-02T05:44:55;3.60;;;2.55;;
11016;SDS011;54687;50.800;6.772;2024-03-02T05:47:22;3.55;;;2.00;;
11016;SDS011;54687;50.800;6.772;2024-03-02T05:49:50;4.63;;;2.08;;
11016;SDS011;54687;50.800;6.772;2024-03-02T05:52:16;3.42;;;2.35;;
11016;SDS011;54687;50.800;6.772;2024-03-02T05:54:44;3.65;;;2.05;;
11016;SDS011;54687;50.800;6.772;2024-03-02T05:57:10;3.45;;;2.28;;
11016;SDS011;54687;50.800;6.772;2024-03-02T05:59:57;3.65;;;1.98;;
11016;SDS011;54687;50.800;6.772;2024-03-02T06:02:24;2.50;;;2.00;;
11016;SDS011;54687;50.800;6.772;2024-03-02T06:04:52;2.28;;;2.08;;
11016;SDS011;54687;50.800;6.772;2024-03-02T06:07:20;4.35;;;3.70;;
11016;SDS011;54687;50.800;6.772;2024-03-02T06:09:46;2.55;;;2.00;;
11016;SDS011;54687;50.800;6.772;2024-03-02T06:12:15;2.55;;;1.95;;
11016;SDS011;54687;50.800;6.772;2024-03-02T06:14:43;3.05;;;1.77;;
11016;SDS011;54687;50.800;6.772;2024-03-02T06:17:09;1.92;;;1.80;;
11016;SDS011;54687;50.800;6.772;2024-03-02T06:19:36;5.68;;;2.00;;
11016;SDS011;54687;50.800;6.772;2024-03-02T06:22:04;3.13;;;1.60;;
11016;SDS011;54687;50.800;6.772;2024-03-02T06:24:31;2.38;;;1.80;;
11016;SDS011;54687;50.800;6.772;2024-03-02T06:26:58;3.17;;;1.80;;
11016;SDS011;54687;50.800;6.772;2024-03-02T06:29:24;2.65;;;2.08;;
11016;SDS011;54687;50.800;6.772;2024-03-02T06:31:51;3.25;;;1.92;;
11016;SDS011;54687;50.800;6.772;2024-03-02T06:34:17;2.83;;;2.50;;
11016;SDS011;54687;50.800;6.772;2024-03-02T06:36:44;2.70;;;2.03;;
11016;SDS011;54687;50.800;6.772;2024-03-02T06:39:12;2.75;;;1.70;;
11016;SDS011;54687;50.800;6.772;2024-03-02T06:41:39;3.45;;;1.95;;
11016;SDS011;54687;50.800;6.772;2024-03-02T06:44:05;2.13;;;1.88;;
11016;SDS011;54687;50.800;6.772;2024-03-02T06:46:32;1.83;;;1.73;;
11016;SDS011;54687;50.800;6.772;2024-03-02T06:48:58;2.10;;;1.90;;
11016;SDS011;54687;50.800;6.772;2024-03-02T06:51:27;2.65;;;1.95;;
11016;SDS011;54687;50.800;6.772;2024-03-02T06:53:54;3.97;;;1.95;;
11016;SDS011;54687;50.800;6.772;2024-03-02T06:56:22;2.53;;;1.90;;
11016;SDS011;54687;50.800;6.772;2024-03-02T06:58:48;3.05;;;1.80;;
11016;SDS011;54687;50.800;6.772;2024-03-02T07:01:15;2.50;;;1.83;;
11016;SDS011;54687;50.800;6.772;2024-03-02T07:03:42;3.10;;;2.10;;
11016;SDS011;54687;50.800;6.772;2024-03-02T07:06:09;4.75;;;2.25;;
11016;SDS011;54687;50.800;6.772;2024-03-02T07:08:35;1.98;;;1.77;;
11016;SDS011;54687;50.800;6.772;2024-03-02T07:11:02;2.70;;;2.03;;
11016;SDS011;54687;50.800;6.772;2024-03-02T07:13:30;2.63;;;1.80;;
11016;SDS011;54687;50.800;6.772;2024-03-02T07:15:57;2.05;;;1.65;;
11016;SDS011;54687;50.800;6.772;2024-03-02T07:18:52;2.83;;;2.03;;
11016;SDS011;54687;50.800;6.772;2024-03-02T07:21:20;2.70;;;2.45;;
11016;SDS011;54687;50.800;6.772;2024-03-02T07:23:47;2.80;;;2.42;;
11016;SDS011;54687;50.800;6.772;2024-03-02T07:26:14;2.75;;;2.40;;
11016;SDS011;54687;50.800;6.772;2024-03-02T07:28:43;2.25;;;2.05;;
11016;SDS011;54687;50.800;6.772;2024-03-02T07:31:10;2.50;;;2.30;;
11016;SDS011;54687;50.800;6.772;2024-03-02T07:33:36;2.70;;;2.50;;
11016;SDS011;54687;50.800;6.772;2024-03-02T07:36:03;3.67;;;2.65;;
11016;SDS011;54687;50.800;6.772;2024-03-02T07:38:31;3.42;;;2.63;;
11016;SDS011;54687;50.800;6.772;2024-03-02T07:40:59;5.15;;;2.33;;
11016;SDS011;54687;50.800;6.772;2024-03-02T07:43:26;3.00;;;2.70;;
11016;SDS011;54687;50.800;6.772;2024-03-02T07:45:54;2.53;;;2.33;;
11016;SDS011;54687;50.800;6.772;2024-03-02T07:48:22;3.53;;;2.00;;
11016;SDS011;54687;50.800;6.772;2024-03-02T07:50:48;2.15;;;1.95;;
11016;SDS011;54687;50.800;6.772;2024-03-02T07:53:15;2.13;;;1.75;;
11016;SDS011;54687;50.800;6.772;2024-03-02T07:55:42;2.42;;;1.92;;
11016;SDS011;54687;50.800;6.772;2024-03-02T07:58:08;3.88;;;2.20;;
11016;SDS011;54687;50.800;6.772;2024-03-02T08:00:36;3.72;;;3.22;;
11016;SDS011;54687;50.800;6.772;2024-03-02T08:03:06;5.40;;;2.17;;
11016;SDS011;54687;50.800;6.772;2024-03-02T08:05:36;2.67;;;2.00;;
11016;SDS011;54687;50.800;6.772;2024-03-02T08:08:03;2.38;;;2.17;;
11016;SDS011;54687;50.800;6.772;2024-03-02T08:10:30;1.67;;;1.50;;
11016;SDS011;54687;50.800;6.772;2024-03-02T08:12:58;2.38;;;1.90;;
11016;SDS011;54687;50.800;6.772;2024-03-02T08:15:25;2.38;;;2.00;;
11016;SDS011;54687;50.800;6.772;2024-03-02T08:17:52;2.20;;;1.33;;
11016;SDS011;54687;50.800;6.772;2024-03-02T08:20:20;2.63;;;1.70;;
11016;SDS011;54687;50.800;6.772;2024-03-02T08:22:47;2.33;;;1.98;;
11016;SDS011;54687;50.800;6.772;2024-03-02T08:25:14;3.58;;;1.90;;
11016;SDS011;54687;50.800;6.772;2024-03-02T08:27:41;2.40;;;1.50;;
11016;SDS011;54687;50.800;6.772;2024-03-02T08:30:08;3.72;;;1.90;;
11016;SDS011;54687;50.800;6.772;2024-03-02T08:32:36;2.55;;;1.50;;
11016;SDS011;54687;50.800;6.772;2024-03-02T08:35:03;2.50;;;1.50;;
11016;SDS011;54687;50.800;6.772;2024-03-02T08:37:32;2.33;;;1.70;;
11016;SDS011;54687;50.800;6.772;2024-03-02T08:39:58;2.88;;;2.10;;
11016;SDS011;54687;50.800;6.772;2024-03-02T08:42:25;2.47;;;1.50;;
11016;SDS011;54687;50.800;6.772;2024-03-02T08:44:52;1.58;;;1.35;;
11016;SDS011;54687;50.800;6.772;2024-03-02T08:47:19;1.73;;;1.58;;
11016;SDS011;54687;50.800;6.772;2024-03-02T08:49:46;1.77;;;1.48;;
11016;SDS011;54687;50.800;6.772;2024-03-02T08:52:12;2.20;;;1.40;;
11016;SDS011;54687;50.800;6.772;2024-03-02T08:54:40;2.03;;;1.50;;
11016;SDS011;54687;50.800;6.772;2024-03-02T08:57:07;1.75;;;1.42;;
11016;SDS011;54687;50.800;6.772;2024-03-02T08:59:34;1.65;;;1.50;;
11016;SDS011;54687;50.800;6.772;2024-03-02T09:02:00;3.28;;;1.50;;
11016;SDS011;54687;50.800;6.772;2024-03-02T09:04:27;1.30;;;1.20;;
11016;SDS011;54687;50.800;6.772;2024-03-02T09:06:54;1.35;;;1.27;;
11016;SDS011;54687;50.800;6.772;2024-03-02T09:09:21;1.55;;;1.17;;
11016;SDS011;54687;50.800;6.772;2024-03-02T09:11:49;1.67;;;1.40;;
11016;SDS011;54687;50.800;6.772;2024-03-02T09:14:16;1.63;;;1.52;;
11016;SDS011;54687;50.800;6.772;2024-03-02T09:16:43;4.70;;;2.13;;
11016;SDS011;54687;50.800;6.772;2024-03-02T09:19:09;1.65;;;1.17;;
11016;SDS011;54687;50.800;6.772;2024-03-02T09:21:36;2.50;;;1.17;;
11016;SDS011;54687;50.800;6.772;2024-03-02T09:24:03;1.67;;;1.13;;
11016;SDS011;54687;50.800;6.772;2024-03-02T09:26:31;4.00;;;1.70;;
11016;SDS011;54687;50.800;6.772;2024-03-02T09:29:00;1.73;;;1.13;;
11016;SDS011;54687;50.800;6.772;2024-03-02T09:31:26;1.60;;;1.10;;
11016;SDS011;54687;50.800;6.772;2024-03-02T09:33:53;2.47;;;1.30;;
11016;SDS011;54687;50.800;6.772;2024-03-02T09:36:20;1.67;;;1.27;;
11016;SDS011;54687;50.800;6.772;2024-03-02T09:38:48;4.50;;;1.65;;
11016;SDS011;54687;50.800;6.772;2024-03-02T09:41:15;2.45;;;1.40;;
11016;SDS011;54687;50.800;6.772;2024-03-02T09:43:42;2.67;;;1.63;;
11016;SDS011;54687;50.800;6.772;2024-03-02T09:46:10;1.65;;;1.38;;
11016;SDS011;54687;50.800;6.772;2024-03-02T09:48:37;1.25;;;1.15;;
11016;SDS011;54687;50.800;6.772;2024-03-02T09:51:04;1.30;;;1.20;;
11016;SDS011;54687;50.800;6.772;2024-03-02T09:53:32;2.88;;;1.52;;
11016;SDS011;54687;50.800;6.772;2024-03-02T09:56:00;1.67;;;1.17;;
11016;SDS011;54687;50.800;6.772;2024-03-02T09:58:26;1.60;;;1.40;;
11016;SDS011;54687;50.800;6.772;2024-03-02T10:00:53;2.13;;;1.20;;
11016;SDS011;54687;50.800;6.772;2024-03-02T10:03:21;4.07;;;1.52;;
11016;SDS011;54687;50.800;6.772;2024-03-02T10:05:49;2.33;;;1.40;;
11016;SDS011;54687;50.800;6.772;2024-03-02T10:08:16;2.67;;;1.52;;
11016;SDS011;54687;50.800;6.772;2024-03-02T10:10:43;2.20;;;1.08;;
11016;SDS011;54687;50.800;6.772;2024-03-02T10:13:10;4.00;;;1.63;;
11016;SDS011;54687;50.800;6.772;2024-03-02T10:15:38;2.70;;;1.30;;
11016;SDS011;54687;50.800;6.772;2024-03-02T10:18:08;2.40;;;1.30;;
11016;SDS011;54687;50.800;6.772;2024-03-02T10:20:37;2.50;;;1.50;;
11016;SDS011;54687;50.800;6.772;2024-03-02T10:23:11;1.73;;;1.33;;
11016;SDS011;54687;50.800;6.772;2024-03-02T10:25:39;2.95;;;1.58;;
11016;SDS011;54687;50.800;6.772;2024-03-02T10:28:06;2.70;;;1.70;;
11016;SDS011;54687;50.800;6.772;2024-03-02T10:30:33;1.77;;;1.33;;
11016;SDS011;54687;50.800;6.772;2024-03-02T10:33:00;2.72;;;1.40;;
11016;SDS011;54687;50.800;6.772;2024-03-02T10:35:28;3.28;;;1.90;;
11016;SDS011;54687;50.800;6.772;2024-03-02T10:37:57;1.35;;;1.23;;
11016;SDS011;54687;50.800;6.772;2024-03-02T10:40:26;1.65;;;1.15;;
11016;SDS011;54687;50.800;6.772;2024-03-02T10:42:53;3.00;;;1.50;;
11016;SDS011;54687;50.800;6.772;2024-03-02T10:45:20;5.63;;;1.70;;
11016;SDS011;54687;50.800;6.772;2024-03-02T10:47:48;2.30;;;1.52;;
11016;SDS011;54687;50.800;6.772;2024-03-02T10:50:16;2.88;;;1.60;;
11016;SDS011;54687;50.800;6.772;2024-03-02T10:52:42;3.13;;;1.40;;
11016;SDS011;54687;50.800;6.772;2024-03-02T10:55:10;2.10;;;1.42;;
11016;SDS011;54687;50.800;6.772;2024-03-02T10:57:40;2.08;;;1.75;;
11016;SDS011;54687;50.800;6.772;2024-03-02T11:00:11;3.45;;;1.70;;
11016;SDS011;54687;50.800;6.772;2024-03-02T11:02:42;3.45;;;2.17;;
11016;SDS011;54687;50.800;6.772;2024-03-02T11:05:13;3.80;;;1.90;;
11016;SDS011;54687;50.800;6.772;2024-03-02T11:07:47;3.20;;;1.70;;
11016;SDS011;54687;50.800;6.772;2024-03-02T11:10:16;1.58;;;1.48;;
11016;SDS011;54687;50.800;6.772;2024-03-02T11:12:44;3.75;;;1.88;;
11016;SDS011;54687;50.800;6.772;2024-03-02T11:15:18;3.72;;;1.60;;
11016;SDS011;54687;50.800;6.772;2024-03-02T11:17:45;2.35;;;1.70;;
11016;SDS011;54687;50.800;6.772;2024-03-02T11:20:13;3.03;;;1.90;;
11016;SDS011;54687;50.800;6.772;2024-03-02T11:22:41;1.90;;;1.50;;
11016;SDS011;54687;50.800;6.772;2024-03-02T11:25:24;2.42;;;1.50;;
11016;SDS011;54687;50.800;6.772;2024-03-02T11:28:04;1.67;;;1.40;;
11016;SDS011;54687;50.800;6.772;2024-03-02T11:30:50;1.58;;;1.48;;
11016;SDS011;54687;50.800;6.772;2024-03-02T11:33:27;2.30;;;1.52;;
11016;SDS011;54687;50.800;6.772;2024-03-02T11:35:56;2.10;;;1.42;;
11016;SDS011;54687;50.800;6.772;2024-03-02T11:38:27;1.70;;;1.60;;
11016;SDS011;54687;50.800;6.772;2024-03-02T11:40:55;2.90;;;1.85;;
11016;SDS011;54687;50.800;6.772;2024-03-02T11:43:22;2.33;;;1.88;;
11016;SDS011;54687;50.800;6.772;2024-03-02T11:45:52;3.47;;;1.63;;
11016;SDS011;54687;50.800;6.772;2024-03-02T11:48:23;1.98;;;1.70;;
11016;SDS011;54687;50.800;6.772;2024-03-02T11:50:51;1.52;;;1.38;;
11016;SDS011;54687;50.800;6.772;2024-03-02T11:53:18;2.78;;;1.63;;
11016;SDS011;54687;50.800;6.772;2024-03-02T11:55:46;5.13;;;1.60;;
11016;SDS011;54687;50.800;6.772;2024-03-02T11:58:15;1.77;;;1.63;;
11016;SDS011;54687;50.800;6.772;2024-03-02T12:00:42;2.90;;;1.83;;
11016;SDS011;54687;50.800;6.772;2024-03-02T12:03:11;2.47;;;1.58;;
11016;SDS011;54687;50.800;6.772;2024-03-02T12:05:39;1.92;;;1.67;;
11016;SDS011;54687;50.800;6.772;2024-03-02T12:08:06;2.53;;;1.58;;
11016;SDS011;54687;50.800;6.772;2024-03-02T12:10:34;2.45;;;1.42;;
11016;SDS011;54687;50.800;6.772;2024-03-02T12:13:01;1.50;;;1.40;;
11016;SDS011;54687;50.800;6.772;2024-03-02T12:15:31;2.13;;;1.65;;
11016;SDS011;54687;50.800;6.772;2024-03-02T12:17:59;1.85;;;1.63;;
11016;SDS011;54687;50.800;6.772;2024-03-02T12:20:27;2.08;;;1.55;;
11016;SDS011;54687;50.800;6.772;2024-03-02T12:22:55;2.47;;;1.80;;
11016;SDS011;54687;50.800;6.772;2024-03-02T12:25:24;1.75;;;1.65;;
11016;SDS011;54687;50.800;6.772;2024-03-02T12:27:52;1.77;;;1.67;;
11016;SDS011;54687;50.800;6.772;2024-03-02T12:30:20;1.60;;;1.50;;
11016;SDS011;54687;50.800;6.772;2024-03-02T12:32:50;2.97;;;1.85;;
11016;SDS011;54687;50.800;6.772;2024-03-02T12:35:17;2.08;;;1.88;;
11016;SDS011;54687;50.800;6.772;2024-03-02T12:37:45;2.10;;;1.90;;
11016;SDS011;54687;50.800;6.772;2024-03-02T12:40:13;2.22;;;1.70;;
11016;SDS011;54687;50.800;6.772;2024-03-02T12:42:42;2.05;;;1.40;;
11016;SDS011;54687;50.800;6.772;2024-03-02T12:45:09;2.20;;;1.58;;
11016;SDS011;54687;50.800;6.772;2024-03-02T12:47:36;1.70;;;1.42;;
11016;SDS011;54687;50.800;6.772;2024-03-02T12:50:05;1.85;;;1.52;;
11016;SDS011;54687;50.800;6.772;2024-03-02T12:52:32;1.40;;;1.30;;
11016;SDS011;54687;50.800;6.772;2024-03-02T12:55:00;1.60;;;1.50;;
11016;SDS011;54687;50.800;6.772;2024-03-02T12:57:29;1.63;;;1.30;;
11016;SDS011;54687;50.800;6.772;2024-03-02T12:59:57;4.28;;;1.42;;
11016;SDS011;54687;50.800;6.772;2024-03-02T13:02:27;1.60;;;1.40;;
11016;SDS011;54687;50.800;6.772;2024-03-02T13:04:54;2.28;;;1.77;;
11016;SDS011;54687;50.800;6.772;2024-03-02T13:07:23;1.80;;;1.70;;
11016;SDS011;54687;50.800;6.772;2024-03-02T13:09:51;2.50;;;1.80;;
11016;SDS011;54687;50.800;6.772;2024-03-02T13:12:20;3.50;;;1.90;;
11016;SDS011;54687;50.800;6.772;2024-03-02T13:14:48;2.22;;;1.75;;
11016;SDS011;54687;50.800;6.772;2024-03-02T13:17:17;1.83;;;1.70;;
11016;SDS011;54687;50.800;6.772;2024-03-02T13:19:50;2.90;;;2.38;;
11016;SDS011;54687;50.800;6.772;2024-03-02T13:22:18;2.40;;;1.90;;
11016;SDS011;54687;50.800;6.772;2024-03-02T13:24:46;2.05;;;1.70;;
11016;SDS011;54687;50.800;6.772;2024-03-02T13:27:13;2.28;;;1.90;;
11016;SDS011;54687;50.800;6.772;2024-03-02T13:29:40;2.58;;;1.90;;
11016;SDS011;54687;50.800;6.772;2024-03-02T13:32:07;1.60;;;1.50;;
11016;SDS011;54687;50.800;6.772;2024-03-02T13:34:34;1.63;;;1.25;;
11016;SDS011;54687;50.800;6.772;2024-03-02T13:37:01;1.40;;;1.30;;
11016;SDS011;54687;50.800;6.772;2024-03-02T13:39:29;1.92;;;1.60;;
11016;SDS011;54687;50.800;6.772;2024-03-02T13:41:58;2.10;;;1.90;;
11016;SDS011;54687;50.800;6.772;2024-03-02T13:44:29;2.22;;;2.00;;
11016;SDS011;54687;50.800;6.772;2024-03-02T13:46:56;2.50;;;1.88;;
11016;SDS011;54687;50.800;6.772;2024-03-02T13:49:23;2.30;;;2.10;;
11016;SDS011;54687;50.800;6.772;2024-03-02T13:51:53;2.35;;;2.15;;
11016;SDS011;54687;50.800;6.772;2024-03-02T13:54:21;2.88;;;2.40;;
11016;SDS011;54687;50.800;6.772;2024-03-02T13:56:48;2.60;;;2.40;;
11016;SDS011;54687;50.800;6.772;2024-03-02T13:59:16;2.65;;;2.38;;
11016;SDS011;54687;50.800;6.772;2024-03-02T14:01:43;3.13;;;2.83;;
11016;SDS011;54687;50.800;6.772;2024-03-02T14:04:10;2.45;;;2.25;;
11016;SDS011;54687;50.800;6.772;2024-03-02T14:06:37;2.67;;;2.45;;
11016;SDS011;54687;50.800;6.772;2024-03-02T14:09:04;2.30;;;2.10;;
11016;SDS011;54687;50.800;6.772;2024-03-02T14:11:31;2.58;;;2.38;;
11016;SDS011;54687;50.800;6.772;2024-03-02T14:13:57;3.63;;;3.33;;
11016;SDS011;54687;50.800;6.772;2024-03-02T14:16:26;3.20;;;2.90;;
11016;SDS011;54687;50.800;6.772;2024-03-02T14:18:52;2.47;;;2.13;;
11016;SDS011;54687;50.800;6.772;2024-03-02T14:21:19;4.25;;;2.70;;
11016;SDS011;54687;50.800;6.772;2024-03-02T14:23:46;2.28;;;2.03;;
11016;SDS011;54687;50.800;6.772;2024-03-02T14:26:13;3.88;;;3.38;;
11016;SDS011;54687;50.800;6.772;2024-03-02T14:28:39;2.85;;;2.53;;
11016;SDS011;54687;50.800;6.772;2024-03-02T14:31:06;2.08;;;1.98;;
11016;SDS011;54687;50.800;6.772;2024-03-02T14:33:34;6.15;;;5.13;;
11016;SDS011;54687;50.800;6.772;2024-03-02T14:36:01;7.63;;;6.85;;
11016;SDS011;54687;50.800;6.772;2024-03-02T14:38:29;4.05;;;3.47;;
11016;SDS011;54687;50.800;6.772;2024-03-02T14:40:56;2.88;;;2.65;;
11016;SDS011;54687;50.800;6.772;2024-03-02T14:43:23;2.42;;;2.17;;
11016;SDS011;54687;50.800;6.772;2024-03-02T14:45:50;3.17;;;2.38;;
11016;SDS011;54687;50.800;6.772;2024-03-02T14:48:17;2.72;;;2.40;;
11016;SDS011;54687;50.800;6.772;2024-03-02T14:50:45;2.67;;;2.40;;
11016;SDS011;54687;50.800;6.772;2024-03-02T14:53:12;4.03;;;2.05;;
11016;SDS011;54687;50.800;6.772;2024-03-02T14:55:39;2.78;;;2.25;;